Osaka Airport, Japan

12:53 PM JST on February 10, 2016 (GMT +0900)
Osaka International | | Change Station
CLOSE
Current Station
Airport
Location: Osaka Airport,
Elevation: 49 ft
Nearby Weather Stations

Elev 49 ft 34.78 °N, 135.44 °E | Updated 53 minutes ago

Scattered Clouds
Scattered Clouds
48 °F
Feels Like 48 °F
N
12
Wind Variable Wind from NW

Today
High -- | Low -- °F
--% Chance of Precip.
Yesterday
High -- | Low -- °F
Precip. -- in
Pressure 30.27 in
Visibility 6.2 miles
Clouds Few 3000 ft
Scattered Clouds 4000 ft
Dew Point 23 °F
Humidity 37%
Rainfall 0.00 in
Snow Depth Not available.
6:50 AM 5:35 PM
Waxing Crescent, 3% visible
METAR RJOO 100300Z 31010KT 270V330 9999 FEW030 SCT040 09/M05 Q1025 RMK 1CU030 4CU040 A3028
Pressure 30.27 in
Visibility 6.2 miles
Clouds Few 3000 ft
Scattered Clouds 4000 ft
Dew Point 23 °F
Humidity 37%
Rainfall 0.00 in
Snow Depth Not available.
6:50 AM 5:35 PM
Waxing Crescent, 3% visible
METAR RJOO 100300Z 31010KT 270V330 9999 FEW030 SCT040 09/M05 Q1025 RMK 1CU030 4CU040 A3028

10-Day Weather Forecast

No radar image for this location.
×

Almanac

Astronomy

Feb. 10, 2016 Rise Set
Actual Time
Civil Twilight
Nautical Twilight
Astronomical Twilight
Moon
Length of Visible Light
Length of Day
Tomorrow will be .
, % of the Moon is Illuminated

Today's Extremes

Country Highs Country Lows

Community

WunderPhotos

Upload Photos

1,891,792 photos uploaded!

WunderBlog® & News

Nearby

Air Quality

  Air Quality AQ Index Pollutant
Not available.

Snow Depth

Station Depth Elevation

Earthquake Activity

City Distance Mag. Time & Date
Minimum magnitude displayed is 2.5.

Coastal Water Temperatures

Place Temperature

Stations

Nearby Weather Stations

Station Location Temp. Windchill Dew Point Humidity Wind Precip. Elev Updated Type